Liguori, MO (63057)

18:48 CDT le 02 septembre 2014 (GMT -0500)
High Ridge Fire District House #1 | Change Station
CLOSE
Current Station
Stations météorologiques personnelles
Location: High Ridge, MO
Altitude: 945 ft
Stations météo à proximité

Alt. 945 ft 38.46 °N, 90.53 °W | Updated 1 minute ago

Nuageux
Nuageux
79.8 ° F
Paraît 83 ° F
N
4.0
Vent Variable Vent de Nord
Gusts 4.0 mph

Aujourd'hui
Haut(e) -- | Bas -- ° F
--% Risque de précip.
Hier
Haut(e) -- | Bas -- ° F
Precip. -- pouce
6:32 AM 7:30 PM
Premier quartier, 56% visible
Pression 29.91 pouce
Visibilité 10.0 Miles terrestres
Nuages Peu 3000 ft
Nuageux 15000 ft
indice de chaleur 83 ° F
Point de rosée 71 ° F
Humidité 74%
Précipitations 0.02 pouce
Profondeur de la couche neigeuse Non disponible.
UV 1 sur 12
Pollen 6.50 sur 12
Qualité de l'air Non disponible.
Flu Activity Non disponible.
METAR KSUS 022254Z 31004KT 10SM FEW030 BKN150 27/19 A2993 RMK AO2 SLP127 T02720194

More Conditions Fewer Conditions

Pression 29.91 pouce
Visibilité 10.0 Miles terrestres
Nuages Peu 3000 ft
Nuageux 15000 ft
indice de chaleur 83 ° F
Point de rosée 71 ° F
Humidité 74%
Précipitations 0.02 pouce
Profondeur de la couche neigeuse Non disponible.
UV 1 sur 12
Pollen 6.50 sur 12
Qualité de l'air Non disponible.
Flu Activity Non disponible.
METAR KSUS 022254Z 31004KT 10SM FEW030 BKN150 27/19 A2993 RMK AO2 SLP127 T02720194

More Conditions Fewer Conditions

10-Day Weather Forecast

Almanac

Astronomie

Sep. 02, 2014 Lever Coucher
Temps réel 06:32 CDT 19:30 CDT
Crépuscule civil 06:05 CDT 19:57 CDT
Crépuscule nautique 05:33 CDT 20:29 CDT
Crépuscule astronomique 04:59 CDT 21:02 CDT
Lune 14:11 CDT Pas de coucher de lune
Durée de lumière visible 13h 52m
Longueur du jour
12h 58m
Tomorrow will be 2m 24s shorter.
Premier quartier, 56% of the Moon is Illuminated
Aujourd'hui
Premier quartier
Sep 8
Pleine lune
Sep 15
Dernier quartier
Sep 24
Nouveau
Oct 1
Premier quartier

Extrêmes aujourd'hui

State Highs State Lows

Community

WunderPhotos

Upload Photos

1,749,799 Photos téléchargées !

Nearby

Épaisseur de neige

Station Depth Altitude
Pas de nouvelles chutes de neige

Activité sismique

Ville Distance Mag. Time & Date
No recent earthquake activity has been reported nearby.
Minimum magnitude displayed is 2.5.

Températures des eaux côtières

Lieu Température
Aucun rapport de station

Stations météo à proximité